sensor_id;sensor_type;location;lat;lon;timestamp;temperature;humidity
81321;DHT22;70785;52.570;5.638;2024-03-02T00:00:29;8.40;63.00
81321;DHT22;70785;52.570;5.638;2024-03-02T00:02:55;8.50;62.90
81321;DHT22;70785;52.570;5.638;2024-03-02T00:05:22;8.40;62.90
81321;DHT22;70785;52.570;5.638;2024-03-02T00:07:57;8.50;62.90
81321;DHT22;70785;52.570;5.638;2024-03-02T00:10:36;8.50;62.80
81321;DHT22;70785;52.570;5.638;2024-03-02T00:13:03;8.60;62.70
81321;DHT22;70785;52.570;5.638;2024-03-02T00:18:02;8.60;62.60
81321;DHT22;70785;52.570;5.638;2024-03-02T00:20:30;8.70;62.60
81321;DHT22;70785;52.570;5.638;2024-03-02T00:23:07;8.60;62.60
81321;DHT22;70785;52.570;5.638;2024-03-02T00:25:38;8.60;62.70
81321;DHT22;70785;52.570;5.638;2024-03-02T00:28:05;8.60;62.70
81321;DHT22;70785;52.570;5.638;2024-03-02T00:33:08;8.60;62.70
81321;DHT22;70785;52.570;5.638;2024-03-02T00:35:34;8.60;62.80
81321;DHT22;70785;52.570;5.638;2024-03-02T00:38:06;8.60;62.80
81321;DHT22;70785;52.570;5.638;2024-03-02T00:40:33;8.60;62.90
81321;DHT22;70785;52.570;5.638;2024-03-02T00:42:59;8.60;62.90
81321;DHT22;70785;52.570;5.638;2024-03-02T00:45:25;8.60;62.90
81321;DHT22;70785;52.570;5.638;2024-03-02T00:47:52;8.60;62.90
81321;DHT22;70785;52.570;5.638;2024-03-02T00:50:19;8.60;62.90
81321;DHT22;70785;52.570;5.638;2024-03-02T00:52:46;8.70;63.00
81321;DHT22;70785;52.570;5.638;2024-03-02T00:55:14;8.70;63.00
81321;DHT22;70785;52.570;5.638;2024-03-02T00:57:40;8.70;63.00
81321;DHT22;70785;52.570;5.638;2024-03-02T01:00:07;8.60;63.10
81321;DHT22;70785;52.570;5.638;2024-03-02T01:02:36;8.60;63.10
81321;DHT22;70785;52.570;5.638;2024-03-02T01:05:02;8.60;63.10
81321;DHT22;70785;52.570;5.638;2024-03-02T01:07:28;8.60;63.10
81321;DHT22;70785;52.570;5.638;2024-03-02T01:09:54;8.60;63.30
81321;DHT22;70785;52.570;5.638;2024-03-02T01:12:20;8.60;63.40
81321;DHT22;70785;52.570;5.638;2024-03-02T01:14:46;8.60;63.30
81321;DHT22;70785;52.570;5.638;2024-03-02T01:17:12;8.60;63.40
81321;DHT22;70785;52.570;5.638;2024-03-02T01:19:41;8.60;63.40
81321;DHT22;70785;52.570;5.638;2024-03-02T01:22:08;8.60;63.50
81321;DHT22;70785;52.570;5.638;2024-03-02T01:24:34;8.60;63.40
81321;DHT22;70785;52.570;5.638;2024-03-02T01:27:00;8.60;63.40
81321;DHT22;70785;52.570;5.638;2024-03-02T01:29:26;8.60;63.40
81321;DHT22;70785;52.570;5.638;2024-03-02T01:31:52;8.60;63.50
81321;DHT22;70785;52.570;5.638;2024-03-02T01:34:19;8.60;63.60
81321;DHT22;70785;52.570;5.638;2024-03-02T01:36:46;8.60;63.80
81321;DHT22;70785;52.570;5.638;2024-03-02T01:39:12;8.60;63.90
81321;DHT22;70785;52.570;5.638;2024-03-02T01:41:38;8.50;64.10
81321;DHT22;70785;52.570;5.638;2024-03-02T01:44:04;8.50;64.30
81321;DHT22;70785;52.570;5.638;2024-03-02T01:46:30;8.40;64.50
81321;DHT22;70785;52.570;5.638;2024-03-02T01:48:56;8.40;64.60
81321;DHT22;70785;52.570;5.638;2024-03-02T01:51:23;8.30;64.80
81321;DHT22;70785;52.570;5.638;2024-03-02T01:53:49;8.30;65.00
81321;DHT22;70785;52.570;5.638;2024-03-02T01:56:15;8.30;65.00
81321;DHT22;70785;52.570;5.638;2024-03-02T01:58:41;8.20;65.10
81321;DHT22;70785;52.570;5.638;2024-03-02T02:01:08;8.20;65.20
81321;DHT22;70785;52.570;5.638;2024-03-02T02:03:36;8.20;65.40
81321;DHT22;70785;52.570;5.638;2024-03-02T02:06:03;8.20;65.50
81321;DHT22;70785;52.570;5.638;2024-03-02T02:08:29;8.10;65.50
81321;DHT22;70785;52.570;5.638;2024-03-02T02:10:55;8.10;65.40
81321;DHT22;70785;52.570;5.638;2024-03-02T02:13:21;8.10;65.50
81321;DHT22;70785;52.570;5.638;2024-03-02T02:15:47;8.00;65.50
81321;DHT22;70785;52.570;5.638;2024-03-02T02:18:13;8.00;65.60
81321;DHT22;70785;52.570;5.638;2024-03-02T02:20:39;8.00;65.60
81321;DHT22;70785;52.570;5.638;2024-03-02T02:23:05;7.80;65.70
81321;DHT22;70785;52.570;5.638;2024-03-02T02:25:33;7.80;65.70
81321;DHT22;70785;52.570;5.638;2024-03-02T02:28:00;7.80;65.80
81321;DHT22;70785;52.570;5.638;2024-03-02T02:30:28;7.80;65.90
81321;DHT22;70785;52.570;5.638;2024-03-02T02:32:54;7.70;66.00
81321;DHT22;70785;52.570;5.638;2024-03-02T02:35:20;7.60;66.10
81321;DHT22;70785;52.570;5.638;2024-03-02T02:37:47;7.60;66.20
81321;DHT22;70785;52.570;5.638;2024-03-02T02:40:14;7.50;66.40
81321;DHT22;70785;52.570;5.638;2024-03-02T02:42:40;7.50;66.40
81321;DHT22;70785;52.570;5.638;2024-03-02T02:45:07;7.50;66.50
81321;DHT22;70785;52.570;5.638;2024-03-02T02:47:33;7.50;66.70
81321;DHT22;70785;52.570;5.638;2024-03-02T02:50:03;7.50;66.80
81321;DHT22;70785;52.570;5.638;2024-03-02T02:52:34;7.50;66.90
81321;DHT22;70785;52.570;5.638;2024-03-02T02:55:05;7.40;67.00
81321;DHT22;70785;52.570;5.638;2024-03-02T02:57:32;7.40;67.00
81321;DHT22;70785;52.570;5.638;2024-03-02T03:00:06;7.40;67.10
81321;DHT22;70785;52.570;5.638;2024-03-02T03:02:37;7.40;67.30
81321;DHT22;70785;52.570;5.638;2024-03-02T03:05:05;7.30;67.50
81321;DHT22;70785;52.570;5.638;2024-03-02T03:07:32;7.20;67.60
81321;DHT22;70785;52.570;5.638;2024-03-02T03:09:59;7.20;67.70
81321;DHT22;70785;52.570;5.638;2024-03-02T03:12:26;7.20;67.80
81321;DHT22;70785;52.570;5.638;2024-03-02T03:14:52;7.20;68.00
81321;DHT22;70785;52.570;5.638;2024-03-02T03:17:18;7.20;68.10
81321;DHT22;70785;52.570;5.638;2024-03-02T03:19:44;7.10;68.30
81321;DHT22;70785;52.570;5.638;2024-03-02T03:22:11;7.00;68.40
81321;DHT22;70785;52.570;5.638;2024-03-02T03:24:37;7.00;68.60
81321;DHT22;70785;52.570;5.638;2024-03-02T03:27:03;7.00;68.80
81321;DHT22;70785;52.570;5.638;2024-03-02T03:29:29;7.00;68.90
81321;DHT22;70785;52.570;5.638;2024-03-02T03:31:55;7.00;69.10
81321;DHT22;70785;52.570;5.638;2024-03-02T03:34:21;6.90;69.20
81321;DHT22;70785;52.570;5.638;2024-03-02T03:36:48;6.90;69.30
81321;DHT22;70785;52.570;5.638;2024-03-02T03:39:14;6.90;69.40
81321;DHT22;70785;52.570;5.638;2024-03-02T03:41:43;6.90;69.50
81321;DHT22;70785;52.570;5.638;2024-03-02T03:44:09;6.90;69.70
81321;DHT22;70785;52.570;5.638;2024-03-02T03:46:35;6.90;70.00
81321;DHT22;70785;52.570;5.638;2024-03-02T03:49:01;6.80;70.20
81321;DHT22;70785;52.570;5.638;2024-03-02T03:51:27;6.70;70.30
81321;DHT22;70785;52.570;5.638;2024-03-02T03:53:53;6.70;70.40
81321;DHT22;70785;52.570;5.638;2024-03-02T03:56:19;6.70;70.50
81321;DHT22;70785;52.570;5.638;2024-03-02T03:58:46;6.60;70.60
81321;DHT22;70785;52.570;5.638;2024-03-02T04:01:12;6.60;70.70
81321;DHT22;70785;52.570;5.638;2024-03-02T04:03:38;6.50;70.80
81321;DHT22;70785;52.570;5.638;2024-03-02T04:06:04;6.50;70.90
81321;DHT22;70785;52.570;5.638;2024-03-02T04:08:30;6.40;70.90
81321;DHT22;70785;52.570;5.638;2024-03-02T04:10:57;6.40;70.90
81321;DHT22;70785;52.570;5.638;2024-03-02T04:13:23;6.40;70.80
81321;DHT22;70785;52.570;5.638;2024-03-02T04:15:49;6.30;70.80
81321;DHT22;70785;52.570;5.638;2024-03-02T04:18:15;6.30;70.90
81321;DHT22;70785;52.570;5.638;2024-03-02T04:20:42;6.20;70.90
81321;DHT22;70785;52.570;5.638;2024-03-02T04:23:08;6.10;71.00
81321;DHT22;70785;52.570;5.638;2024-03-02T04:25:34;6.10;71.00
81321;DHT22;70785;52.570;5.638;2024-03-02T04:28:00;6.10;71.10
81321;DHT22;70785;52.570;5.638;2024-03-02T04:30:26;6.10;71.10
81321;DHT22;70785;52.570;5.638;2024-03-02T04:32:52;6.00;71.20
81321;DHT22;70785;52.570;5.638;2024-03-02T04:35:18;6.00;71.20
81321;DHT22;70785;52.570;5.638;2024-03-02T04:37:44;6.00;71.20
81321;DHT22;70785;52.570;5.638;2024-03-02T04:40:11;5.90;71.30
81321;DHT22;70785;52.570;5.638;2024-03-02T04:42:37;5.90;71.30
81321;DHT22;70785;52.570;5.638;2024-03-02T04:45:04;5.90;71.40
81321;DHT22;70785;52.570;5.638;2024-03-02T04:47:30;5.90;71.40
81321;DHT22;70785;52.570;5.638;2024-03-02T04:49:56;5.80;71.50
81321;DHT22;70785;52.570;5.638;2024-03-02T04:52:22;5.80;71.50
81321;DHT22;70785;52.570;5.638;2024-03-02T04:54:48;5.90;71.80
81321;DHT22;70785;52.570;5.638;2024-03-02T04:57:33;5.90;71.80
81321;DHT22;70785;52.570;5.638;2024-03-02T04:59:59;5.90;71.70
81321;DHT22;70785;52.570;5.638;2024-03-02T05:02:26;6.00;71.70
81321;DHT22;70785;52.570;5.638;2024-03-02T05:04:52;6.00;71.70
81321;DHT22;70785;52.570;5.638;2024-03-02T05:07:18;6.10;71.60
81321;DHT22;70785;52.570;5.638;2024-03-02T05:09:44;6.10;71.70
81321;DHT22;70785;52.570;5.638;2024-03-02T05:12:10;6.10;71.70
81321;DHT22;70785;52.570;5.638;2024-03-02T05:14:39;6.20;71.60
81321;DHT22;70785;52.570;5.638;2024-03-02T05:17:06;6.20;71.60
81321;DHT22;70785;52.570;5.638;2024-03-02T05:19:32;6.20;71.60
81321;DHT22;70785;52.570;5.638;2024-03-02T05:21:58;6.20;71.60
81321;DHT22;70785;52.570;5.638;2024-03-02T05:24:24;6.20;71.60
81321;DHT22;70785;52.570;5.638;2024-03-02T05:26:53;6.20;71.70
81321;DHT22;70785;52.570;5.638;2024-03-02T05:29:19;6.10;71.80
81321;DHT22;70785;52.570;5.638;2024-03-02T05:31:45;6.10;71.80
81321;DHT22;70785;52.570;5.638;2024-03-02T05:34:11;6.00;71.80
81321;DHT22;70785;52.570;5.638;2024-03-02T05:36:37;5.90;71.90
81321;DHT22;70785;52.570;5.638;2024-03-02T05:39:05;5.80;72.10
81321;DHT22;70785;52.570;5.638;2024-03-02T05:41:35;5.70;72.10
81321;DHT22;70785;52.570;5.638;2024-03-02T05:44:01;5.60;72.20
81321;DHT22;70785;52.570;5.638;2024-03-02T05:46:27;5.50;72.30
81321;DHT22;70785;52.570;5.638;2024-03-02T05:48:54;5.50;72.30
81321;DHT22;70785;52.570;5.638;2024-03-02T05:51:20;5.30;72.50
81321;DHT22;70785;52.570;5.638;2024-03-02T05:53:46;5.30;72.50
81321;DHT22;70785;52.570;5.638;2024-03-02T05:56:12;5.30;72.50
81321;DHT22;70785;52.570;5.638;2024-03-02T05:58:38;5.20;72.60
81321;DHT22;70785;52.570;5.638;2024-03-02T06:01:23;5.10;72.70
81321;DHT22;70785;52.570;5.638;2024-03-02T06:03:55;5.00;72.70
81321;DHT22;70785;52.570;5.638;2024-03-02T06:06:23;5.00;72.80
81321;DHT22;70785;52.570;5.638;2024-03-02T06:08:49;5.00;72.80
81321;DHT22;70785;52.570;5.638;2024-03-02T06:11:16;4.90;72.90
81321;DHT22;70785;52.570;5.638;2024-03-02T06:13:42;4.90;73.00
81321;DHT22;70785;52.570;5.638;2024-03-02T06:16:08;4.90;73.10
81321;DHT22;70785;52.570;5.638;2024-03-02T06:18:34;4.90;73.10
81321;DHT22;70785;52.570;5.638;2024-03-02T06:21:00;4.90;73.00
81321;DHT22;70785;52.570;5.638;2024-03-02T06:23:29;4.80;73.10
81321;DHT22;70785;52.570;5.638;2024-03-02T06:25:55;4.80;73.20
81321;DHT22;70785;52.570;5.638;2024-03-02T06:28:21;4.80;73.20
81321;DHT22;70785;52.570;5.638;2024-03-02T06:30:47;4.80;73.20
81321;DHT22;70785;52.570;5.638;2024-03-02T06:33:13;4.90;73.10
81321;DHT22;70785;52.570;5.638;2024-03-02T06:35:39;4.80;73.10
81321;DHT22;70785;52.570;5.638;2024-03-02T06:38:06;4.70;73.20
81321;DHT22;70785;52.570;5.638;2024-03-02T06:40:33;4.70;73.10
81321;DHT22;70785;52.570;5.638;2024-03-02T06:43:00;4.70;73.20
81321;DHT22;70785;52.570;5.638;2024-03-02T06:45:26;4.70;73.20
81321;DHT22;70785;52.570;5.638;2024-03-02T06:47:53;4.70;73.20
81321;DHT22;70785;52.570;5.638;2024-03-02T06:50:19;4.70;73.20
81321;DHT22;70785;52.570;5.638;2024-03-02T06:52:45;4.70;73.10
81321;DHT22;70785;52.570;5.638;2024-03-02T06:55:11;4.70;73.00
81321;DHT22;70785;52.570;5.638;2024-03-02T06:57:37;4.70;73.00
81321;DHT22;70785;52.570;5.638;2024-03-02T07:00:04;4.80;72.80
81321;DHT22;70785;52.570;5.638;2024-03-02T07:02:31;4.80;72.70
81321;DHT22;70785;52.570;5.638;2024-03-02T07:04:57;4.90;72.70
81321;DHT22;70785;52.570;5.638;2024-03-02T07:07:23;5.10;72.50
81321;DHT22;70785;52.570;5.638;2024-03-02T07:09:50;5.30;72.20
81321;DHT22;70785;52.570;5.638;2024-03-02T07:12:16;5.40;71.90
81321;DHT22;70785;52.570;5.638;2024-03-02T07:14:42;5.50;71.70
81321;DHT22;70785;52.570;5.638;2024-03-02T07:17:26;5.60;71.60
81321;DHT22;70785;52.570;5.638;2024-03-02T07:19:53;5.80;71.50
81321;DHT22;70785;52.570;5.638;2024-03-02T07:22:20;6.00;71.20
81321;DHT22;70785;52.570;5.638;2024-03-02T07:24:46;6.20;71.00
81321;DHT22;70785;52.570;5.638;2024-03-02T07:27:12;6.30;70.90
81321;DHT22;70785;52.570;5.638;2024-03-02T07:29:39;6.30;70.90
81321;DHT22;70785;52.570;5.638;2024-03-02T07:32:06;6.30;70.90
81321;DHT22;70785;52.570;5.638;2024-03-02T07:34:32;6.30;71.00
81321;DHT22;70785;52.570;5.638;2024-03-02T07:36:59;6.30;71.00
81321;DHT22;70785;52.570;5.638;2024-03-02T07:39:25;6.40;71.00
81321;DHT22;70785;52.570;5.638;2024-03-02T07:41:52;6.40;70.90
81321;DHT22;70785;52.570;5.638;2024-03-02T07:44:18;6.40;70.90
81321;DHT22;70785;52.570;5.638;2024-03-02T07:46:46;6.50;70.90
81321;DHT22;70785;52.570;5.638;2024-03-02T07:49:13;6.50;70.80
81321;DHT22;70785;52.570;5.638;2024-03-02T07:51:40;6.50;70.80
81321;DHT22;70785;52.570;5.638;2024-03-02T07:54:06;6.50;70.70
81321;DHT22;70785;52.570;5.638;2024-03-02T07:56:32;6.50;70.50
81321;DHT22;70785;52.570;5.638;2024-03-02T07:58:58;6.60;70.40
81321;DHT22;70785;52.570;5.638;2024-03-02T08:01:28;6.60;70.30
81321;DHT22;70785;52.570;5.638;2024-03-02T08:03:59;6.70;70.20
81321;DHT22;70785;52.570;5.638;2024-03-02T08:06:26;6.80;70.10
81321;DHT22;70785;52.570;5.638;2024-03-02T08:09:00;6.80;70.00
81321;DHT22;70785;52.570;5.638;2024-03-02T08:11:27;6.90;69.90
81321;DHT22;70785;52.570;5.638;2024-03-02T08:13:53;7.00;69.80
81321;DHT22;70785;52.570;5.638;2024-03-02T08:16:22;7.10;69.70
81321;DHT22;70785;52.570;5.638;2024-03-02T08:18:50;7.20;69.50
81321;DHT22;70785;52.570;5.638;2024-03-02T08:21:16;7.30;69.30
81321;DHT22;70785;52.570;5.638;2024-03-02T08:23:43;7.40;69.10
81321;DHT22;70785;52.570;5.638;2024-03-02T08:26:09;7.50;68.90
81321;DHT22;70785;52.570;5.638;2024-03-02T08:28:36;7.60;68.70
81321;DHT22;70785;52.570;5.638;2024-03-02T08:31:07;7.80;68.50
81321;DHT22;70785;52.570;5.638;2024-03-02T08:33:33;7.80;68.30
81321;DHT22;70785;52.570;5.638;2024-03-02T08:36:00;7.80;68.00
81321;DHT22;70785;52.570;5.638;2024-03-02T08:38:26;7.80;67.90
81321;DHT22;70785;52.570;5.638;2024-03-02T08:40:52;7.90;67.60
81321;DHT22;70785;52.570;5.638;2024-03-02T08:43:19;7.90;67.50
81321;DHT22;70785;52.570;5.638;2024-03-02T08:45:46;8.00;67.50
81321;DHT22;70785;52.570;5.638;2024-03-02T08:48:13;8.00;67.40
81321;DHT22;70785;52.570;5.638;2024-03-02T08:50:39;8.10;67.20
81321;DHT22;70785;52.570;5.638;2024-03-02T08:53:05;8.20;67.10
81321;DHT22;70785;52.570;5.638;2024-03-02T08:55:31;8.20;67.10
81321;DHT22;70785;52.570;5.638;2024-03-02T08:57:57;8.30;67.00
81321;DHT22;70785;52.570;5.638;2024-03-02T09:00:24;8.30;66.80
81321;DHT22;70785;52.570;5.638;2024-03-02T09:02:51;8.30;66.60
81321;DHT22;70785;52.570;5.638;2024-03-02T09:05:17;8.30;66.50
81321;DHT22;70785;52.570;5.638;2024-03-02T09:07:43;8.30;66.50
81321;DHT22;70785;52.570;5.638;2024-03-02T09:10:09;8.30;66.20
81321;DHT22;70785;52.570;5.638;2024-03-02T09:12:37;8.30;66.20
81321;DHT22;70785;52.570;5.638;2024-03-02T09:15:04;8.30;66.30
81321;DHT22;70785;52.570;5.638;2024-03-02T09:17:32;8.30;66.40
81321;DHT22;70785;52.570;5.638;2024-03-02T09:19:58;8.30;66.40
81321;DHT22;70785;52.570;5.638;2024-03-02T09:22:24;8.30;66.20
81321;DHT22;70785;52.570;5.638;2024-03-02T09:24:50;8.30;66.10
81321;DHT22;70785;52.570;5.638;2024-03-02T09:27:16;8.30;65.90
81321;DHT22;70785;52.570;5.638;2024-03-02T09:29:42;8.30;65.80
81321;DHT22;70785;52.570;5.638;2024-03-02T09:32:12;8.30;65.80
81321;DHT22;70785;52.570;5.638;2024-03-02T09:34:41;8.40;65.80
81321;DHT22;70785;52.570;5.638;2024-03-02T09:37:07;8.40;65.80
81321;DHT22;70785;52.570;5.638;2024-03-02T09:39:33;8.50;65.80
81321;DHT22;70785;52.570;5.638;2024-03-02T09:42:00;8.50;65.70
81321;DHT22;70785;52.570;5.638;2024-03-02T09:44:27;8.60;65.50
81321;DHT22;70785;52.570;5.638;2024-03-02T09:46:53;8.60;65.50
81321;DHT22;70785;52.570;5.638;2024-03-02T09:49:19;8.70;65.20
81321;DHT22;70785;52.570;5.638;2024-03-02T09:51:49;8.80;65.00
81321;DHT22;70785;52.570;5.638;2024-03-02T09:54:16;8.90;64.90
81321;DHT22;70785;52.570;5.638;2024-03-02T09:56:42;9.00;64.80
81321;DHT22;70785;52.570;5.638;2024-03-02T09:59:08;9.00;64.50
81321;DHT22;70785;52.570;5.638;2024-03-02T10:01:34;9.00;64.30
81321;DHT22;70785;52.570;5.638;2024-03-02T10:04:01;9.00;64.30
81321;DHT22;70785;52.570;5.638;2024-03-02T10:06:28;9.20;64.10
81321;DHT22;70785;52.570;5.638;2024-03-02T10:08:55;9.20;64.00
81321;DHT22;70785;52.570;5.638;2024-03-02T10:11:28;9.20;63.70
81321;DHT22;70785;52.570;5.638;2024-03-02T10:14:11;9.20;63.50
81321;DHT22;70785;52.570;5.638;2024-03-02T10:16:38;9.30;63.50
81321;DHT22;70785;52.570;5.638;2024-03-02T10:19:24;9.40;63.50
81321;DHT22;70785;52.570;5.638;2024-03-02T10:21:51;9.40;63.20
81321;DHT22;70785;52.570;5.638;2024-03-02T10:24:19;9.40;63.00
81321;DHT22;70785;52.570;5.638;2024-03-02T10:26:46;9.40;62.90
81321;DHT22;70785;52.570;5.638;2024-03-02T10:29:12;9.40;62.50
81321;DHT22;70785;52.570;5.638;2024-03-02T10:31:39;9.50;62.40
81321;DHT22;70785;52.570;5.638;2024-03-02T10:34:06;9.60;62.40
81321;DHT22;70785;52.570;5.638;2024-03-02T10:36:36;9.60;62.30
81321;DHT22;70785;52.570;5.638;2024-03-02T10:39:04;9.70;62.10
81321;DHT22;70785;52.570;5.638;2024-03-02T10:41:38;9.70;61.60
81321;DHT22;70785;52.570;5.638;2024-03-02T10:44:09;9.80;61.50
81321;DHT22;70785;52.570;5.638;2024-03-02T10:46:37;9.80;61.20
81321;DHT22;70785;52.570;5.638;2024-03-02T10:49:04;9.90;61.30
81321;DHT22;70785;52.570;5.638;2024-03-02T10:51:32;10.00;61.30
81321;DHT22;70785;52.570;5.638;2024-03-02T10:53:59;10.00;61.10
81321;DHT22;70785;52.570;5.638;2024-03-02T10:56:39;10.10;61.00
81321;DHT22;70785;52.570;5.638;2024-03-02T10:59:26;10.20;60.70
81321;DHT22;70785;52.570;5.638;2024-03-02T11:02:03;10.20;60.00
81321;DHT22;70785;52.570;5.638;2024-03-02T11:04:30;10.30;59.90
81321;DHT22;70785;52.570;5.638;2024-03-02T11:07:00;10.40;60.00
81321;DHT22;70785;52.570;5.638;2024-03-02T11:09:28;10.50;60.00
81321;DHT22;70785;52.570;5.638;2024-03-02T11:13:09;10.50;59.80
81321;DHT22;70785;52.570;5.638;2024-03-02T11:15:10;10.60;59.50
81321;DHT22;70785;52.570;5.638;2024-03-02T11:17:36;10.70;59.20
81321;DHT22;70785;52.570;5.638;2024-03-02T11:20:04;10.70;59.10
81321;DHT22;70785;52.570;5.638;2024-03-02T11:22:36;10.80;59.00
81321;DHT22;70785;52.570;5.638;2024-03-02T11:25:02;10.80;58.90
81321;DHT22;70785;52.570;5.638;2024-03-02T11:33:04;10.90;57.70
81321;DHT22;70785;52.570;5.638;2024-03-02T11:35:43;11.00;58.00
81321;DHT22;70785;52.570;5.638;2024-03-02T11:38:12;11.10;58.00
81321;DHT22;70785;52.570;5.638;2024-03-02T11:40:39;11.10;58.10
81321;DHT22;70785;52.570;5.638;2024-03-02T11:43:06;11.10;58.10
81321;DHT22;70785;52.570;5.638;2024-03-02T11:45:33;11.30;58.10
81321;DHT22;70785;52.570;5.638;2024-03-02T11:48:01;11.40;58.00
81321;DHT22;70785;52.570;5.638;2024-03-02T11:50:47;11.50;57.90
81321;DHT22;70785;52.570;5.638;2024-03-02T11:53:15;11.50;57.30
81321;DHT22;70785;52.570;5.638;2024-03-02T11:55:41;11.50;57.30
81321;DHT22;70785;52.570;5.638;2024-03-02T11:58:09;11.60;57.10
81321;DHT22;70785;52.570;5.638;2024-03-02T12:00:35;11.60;56.80
81321;DHT22;70785;52.570;5.638;2024-03-02T12:03:09;11.70;56.40
81321;DHT22;70785;52.570;5.638;2024-03-02T12:05:36;11.70;56.10
81321;DHT22;70785;52.570;5.638;2024-03-02T12:08:06;11.60;56.20
81321;DHT22;70785;52.570;5.638;2024-03-02T12:10:34;11.70;56.20
81321;DHT22;70785;52.570;5.638;2024-03-02T12:13:05;11.70;56.40
81321;DHT22;70785;52.570;5.638;2024-03-02T12:15:38;11.90;56.10
81321;DHT22;70785;52.570;5.638;2024-03-02T12:18:05;11.90;56.20
81321;DHT22;70785;52.570;5.638;2024-03-02T12:20:34;12.00;56.10
81321;DHT22;70785;52.570;5.638;2024-03-02T12:23:02;12.10;55.90
81321;DHT22;70785;52.570;5.638;2024-03-02T12:25:30;12.10;55.50
81321;DHT22;70785;52.570;5.638;2024-03-02T12:27:59;12.20;55.30
81321;DHT22;70785;52.570;5.638;2024-03-02T12:30:29;12.20;55.00
81321;DHT22;70785;52.570;5.638;2024-03-02T12:32:56;12.20;54.90
81321;DHT22;70785;52.570;5.638;2024-03-02T12:35:22;12.20;54.70
81321;DHT22;70785;52.570;5.638;2024-03-02T12:37:51;12.30;54.70
81321;DHT22;70785;52.570;5.638;2024-03-02T12:40:18;12.30;54.60
81321;DHT22;70785;52.570;5.638;2024-03-02T12:42:46;12.50;54.30
81321;DHT22;70785;52.570;5.638;2024-03-02T12:45:13;12.50;54.20
81321;DHT22;70785;52.570;5.638;2024-03-02T12:47:40;12.50;54.10
81321;DHT22;70785;52.570;5.638;2024-03-02T12:50:08;12.50;53.90
81321;DHT22;70785;52.570;5.638;2024-03-02T12:52:34;12.50;53.80
81321;DHT22;70785;52.570;5.638;2024-03-02T12:55:01;12.30;53.80
81321;DHT22;70785;52.570;5.638;2024-03-02T12:57:30;12.20;53.50
81321;DHT22;70785;52.570;5.638;2024-03-02T13:00:04;12.10;53.50
81321;DHT22;70785;52.570;5.638;2024-03-02T13:02:42;12.20;53.50
81321;DHT22;70785;52.570;5.638;2024-03-02T13:05:08;12.40;53.50
81321;DHT22;70785;52.570;5.638;2024-03-02T13:07:37;12.50;53.30
81321;DHT22;70785;52.570;5.638;2024-03-02T13:10:05;12.60;52.90
81321;DHT22;70785;52.570;5.638;2024-03-02T13:12:32;12.80;52.60
81321;DHT22;70785;52.570;5.638;2024-03-02T13:14:59;12.90;52.40
81321;DHT22;70785;52.570;5.638;2024-03-02T13:17:25;13.10;52.50
81321;DHT22;70785;52.570;5.638;2024-03-02T13:19:52;13.30;52.30
81321;DHT22;70785;52.570;5.638;2024-03-02T13:22:19;13.30;52.10
81321;DHT22;70785;52.570;5.638;2024-03-02T13:24:45;13.40;52.10
81321;DHT22;70785;52.570;5.638;2024-03-02T13:27:12;13.50;52.00
81321;DHT22;70785;52.570;5.638;2024-03-02T13:29:38;13.50;52.30
81321;DHT22;70785;52.570;5.638;2024-03-02T13:32:04;13.50;52.60
81321;DHT22;70785;52.570;5.638;2024-03-02T13:34:30;13.50;52.80
81321;DHT22;70785;52.570;5.638;2024-03-02T13:36:56;13.50;52.90
81321;DHT22;70785;52.570;5.638;2024-03-02T13:39:22;13.50;53.10
81321;DHT22;70785;52.570;5.638;2024-03-02T13:41:49;13.50;53.30
81321;DHT22;70785;52.570;5.638;2024-03-02T13:44:19;13.50;53.60
81321;DHT22;70785;52.570;5.638;2024-03-02T13:46:45;13.50;53.60
81321;DHT22;70785;52.570;5.638;2024-03-02T13:49:12;13.60;53.60
81321;DHT22;70785;52.570;5.638;2024-03-02T13:51:38;13.60;53.40
81321;DHT22;70785;52.570;5.638;2024-03-02T13:54:04;13.60;53.30
81321;DHT22;70785;52.570;5.638;2024-03-02T13:56:30;13.60;53.30
81321;DHT22;70785;52.570;5.638;2024-03-02T13:58:58;13.60;53.30
81321;DHT22;70785;52.570;5.638;2024-03-02T14:01:24;13.60;53.10
81321;DHT22;70785;52.570;5.638;2024-03-02T14:03:50;13.60;53.50
81321;DHT22;70785;52.570;5.638;2024-03-02T14:06:16;13.60;53.60
81321;DHT22;70785;52.570;5.638;2024-03-02T14:08:42;13.60;53.30
81321;DHT22;70785;52.570;5.638;2024-03-02T14:11:10;13.50;53.50
81321;DHT22;70785;52.570;5.638;2024-03-02T14:13:43;13.60;53.80
81321;DHT22;70785;52.570;5.638;2024-03-02T14:16:14;13.90;54.40
81321;DHT22;70785;52.570;5.638;2024-03-02T14:18:40;14.30;55.00
81321;DHT22;70785;52.570;5.638;2024-03-02T14:21:07;14.60;55.50
81321;DHT22;70785;52.570;5.638;2024-03-02T14:23:33;15.00;54.40
81321;DHT22;70785;52.570;5.638;2024-03-02T14:26:00;15.30;53.40
81321;DHT22;70785;52.570;5.638;2024-03-02T14:28:26;15.50;53.20
81321;DHT22;70785;52.570;5.638;2024-03-02T14:30:52;15.80;53.60
81321;DHT22;70785;52.570;5.638;2024-03-02T14:33:18;16.00;53.40
81321;DHT22;70785;52.570;5.638;2024-03-02T14:35:44;16.00;53.40
81321;DHT22;70785;52.570;5.638;2024-03-02T14:38:12;16.40;53.10
81321;DHT22;70785;52.570;5.638;2024-03-02T14:40:38;16.40;51.80
81321;DHT22;70785;52.570;5.638;2024-03-02T14:43:04;16.40;51.70
81321;DHT22;70785;52.570;5.638;2024-03-02T14:45:30;16.40;52.00
81321;DHT22;70785;52.570;5.638;2024-03-02T14:47:57;16.40;51.50
81321;DHT22;70785;52.570;5.638;2024-03-02T14:50:26;16.10;50.80
81321;DHT22;70785;52.570;5.638;2024-03-02T14:52:53;15.80;50.50
81321;DHT22;70785;52.570;5.638;2024-03-02T14:55:19;15.60;50.90
81321;DHT22;70785;52.570;5.638;2024-03-02T14:57:45;15.80;51.10
81321;DHT22;70785;52.570;5.638;2024-03-02T15:00:11;16.10;51.30
81321;DHT22;70785;52.570;5.638;2024-03-02T15:02:38;16.40;51.20
81321;DHT22;70785;52.570;5.638;2024-03-02T15:05:04;16.80;50.70
81321;DHT22;70785;52.570;5.638;2024-03-02T15:07:32;17.00;50.50
81321;DHT22;70785;52.570;5.638;2024-03-02T15:09:58;17.40;49.60
81321;DHT22;70785;52.570;5.638;2024-03-02T15:12:24;17.30;49.10
81321;DHT22;70785;52.570;5.638;2024-03-02T15:14:50;17.20;48.80
81321;DHT22;70785;52.570;5.638;2024-03-02T15:17:16;17.40;48.60
81321;DHT22;70785;52.570;5.638;2024-03-02T15:19:44;17.50;48.30
81321;DHT22;70785;52.570;5.638;2024-03-02T15:22:11;17.40;47.90
81321;DHT22;70785;52.570;5.638;2024-03-02T15:24:38;17.10;47.70
81321;DHT22;70785;52.570;5.638;2024-03-02T15:27:05;17.00;47.90
81321;DHT22;70785;52.570;5.638;2024-03-02T15:29:33;17.00;48.20
81321;DHT22;70785;52.570;5.638;2024-03-02T15:31:59;17.00;48.20
81321;DHT22;70785;52.570;5.638;2024-03-02T15:34:25;17.20;48.30
81321;DHT22;70785;52.570;5.638;2024-03-02T15:36:51;17.10;48.40
81321;DHT22;70785;52.570;5.638;2024-03-02T15:39:18;17.20;48.70
81321;DHT22;70785;52.570;5.638;2024-03-02T15:41:44;17.20;48.80
81321;DHT22;70785;52.570;5.638;2024-03-02T15:44:11;17.40;48.60
81321;DHT22;70785;52.570;5.638;2024-03-02T15:46:37;17.50;48.70
81321;DHT22;70785;52.570;5.638;2024-03-02T15:49:03;17.50;48.40
81321;DHT22;70785;52.570;5.638;2024-03-02T15:51:32;17.50;48.50
81321;DHT22;70785;52.570;5.638;2024-03-02T15:53:59;17.30;48.40